createdAt,value
2023-05-21T00:01:11.238Z,16.62
2023-05-21T00:03:42.410Z,16.58
2023-05-21T00:06:09.888Z,16.54
2023-05-21T00:08:37.395Z,16.50
2023-05-21T00:11:04.646Z,16.48
2023-05-21T00:13:31.995Z,16.50
2023-05-21T00:15:59.344Z,16.49
2023-05-21T00:18:27.016Z,16.48
2023-05-21T00:20:55.190Z,16.45
2023-05-21T00:23:22.443Z,16.40
2023-05-21T00:25:51.210Z,16.33
2023-05-21T00:28:20.410Z,16.27
2023-05-21T00:30:48.158Z,16.23
2023-05-21T00:33:17.628Z,16.21
2023-05-21T00:35:44.841Z,16.18
2023-05-21T00:38:12.075Z,16.11
2023-05-21T00:40:41.682Z,16.01
2023-05-21T00:43:10.573Z,15.96
2023-05-21T00:45:38.305Z,15.90
2023-05-21T00:48:06.854Z,15.83
2023-05-21T00:50:34.597Z,15.74
2023-05-21T00:53:01.848Z,15.66
2023-05-21T00:55:29.300Z,15.57
2023-05-21T00:57:56.650Z,15.50
2023-05-21T01:00:26.877Z,15.45
2023-05-21T01:02:54.520Z,15.39
2023-05-21T01:05:22.605Z,15.37
2023-05-21T01:07:49.939Z,15.30
2023-05-21T01:10:17.111Z,15.24
2023-05-21T01:12:44.652Z,15.20
2023-05-21T01:15:12.757Z,15.14
2023-05-21T01:17:40.461Z,15.07
2023-05-21T01:20:11.414Z,15.05
2023-05-21T01:22:42.778Z,15.07
2023-05-21T01:25:11.228Z,15.06
2023-05-21T01:27:38.406Z,15.04
2023-05-21T01:30:06.696Z,15.03
2023-05-21T01:32:42.911Z,15.08
2023-05-21T01:35:39.324Z,15.13
2023-05-21T01:38:18.737Z,15.18
2023-05-21T01:41:05.505Z,15.23
2023-05-21T01:43:34.736Z,15.23
2023-05-21T01:46:02.212Z,15.14
2023-05-21T01:48:30.383Z,15.03
2023-05-21T01:50:59.269Z,14.97
2023-05-21T01:53:26.725Z,14.96
2023-05-21T01:55:54.950Z,14.91
2023-05-21T01:58:23.366Z,14.89
2023-05-21T02:00:55.024Z,14.88
2023-05-21T02:03:26.142Z,14.87
2023-05-21T02:05:53.722Z,14.82
2023-05-21T02:08:21.166Z,14.84
2023-05-21T02:10:48.309Z,14.82
2023-05-21T02:13:16.300Z,14.77
2023-05-21T02:15:43.651Z,14.70
2023-05-21T02:18:11.912Z,14.65
2023-05-21T02:20:39.182Z,14.60
2023-05-21T02:23:06.678Z,14.54
2023-05-21T02:25:34.282Z,14.52
2023-05-21T02:28:02.892Z,14.48
2023-05-21T02:30:30.239Z,14.46
2023-05-21T02:32:59.318Z,14.44
2023-05-21T02:35:27.373Z,14.43
2023-05-21T02:37:59.598Z,14.45
2023-05-21T02:40:27.018Z,14.46
2023-05-21T02:42:54.274Z,14.48
2023-05-21T02:45:21.943Z,14.50
2023-05-21T02:47:49.455Z,14.49
2023-05-21T02:50:18.599Z,14.45
2023-05-21T02:52:51.169Z,14.37
2023-05-21T02:55:18.515Z,14.31
2023-05-21T02:57:45.779Z,14.28
2023-05-21T03:00:14.170Z,14.29
2023-05-21T03:02:42.945Z,14.31
2023-05-21T03:05:10.843Z,14.30
2023-05-21T03:07:39.064Z,14.29
2023-05-21T03:10:07.351Z,14.26
2023-05-21T03:12:34.602Z,14.25
2023-05-21T03:15:02.159Z,14.26
2023-05-21T03:17:29.534Z,14.28
2023-05-21T03:19:58.505Z,14.33
2023-05-21T03:22:25.972Z,14.38
2023-05-21T03:24:53.827Z,14.43
2023-05-21T03:27:21.381Z,14.49
2023-05-21T03:29:49.459Z,14.53
2023-05-21T03:32:17.173Z,14.59
2023-05-21T03:34:45.732Z,14.65
2023-05-21T03:37:13.058Z,14.72
2023-05-21T03:39:41.239Z,14.77
2023-05-21T03:42:08.365Z,14.86
2023-05-21T03:44:44.231Z,14.93
2023-05-21T03:47:29.922Z,15.02
2023-05-21T03:49:58.402Z,15.14
2023-05-21T03:52:25.965Z,15.30
2023-05-21T03:54:53.420Z,15.49
2023-05-21T03:57:21.278Z,15.70
2023-05-21T03:59:49.454Z,15.92
2023-05-21T04:02:16.963Z,16.15
2023-05-21T04:04:45.837Z,16.36
2023-05-21T04:07:15.652Z,16.59
2023-05-21T04:09:43.199Z,16.79
2023-05-21T04:12:13.700Z,17.04
2023-05-21T04:14:41.572Z,17.29
2023-05-21T04:17:10.128Z,17.55
2023-05-21T04:19:38.428Z,17.77
2023-05-21T04:22:06.081Z,17.99
2023-05-21T04:24:34.054Z,18.16
2023-05-21T04:27:24.106Z,18.38
2023-05-21T04:29:51.685Z,18.61
2023-05-21T04:32:18.941Z,18.81
2023-05-21T04:34:46.394Z,18.99
2023-05-21T04:37:14.174Z,19.15
2023-05-21T04:39:41.419Z,19.27
2023-05-21T04:42:11.281Z,19.28
2023-05-21T04:44:40.685Z,19.36
2023-05-21T04:47:08.546Z,19.44
2023-05-21T04:49:36.687Z,19.45
2023-05-21T04:52:04.525Z,19.48
2023-05-21T04:54:31.791Z,19.57
2023-05-21T04:56:59.358Z,19.63
2023-05-21T04:59:26.590Z,19.69
2023-05-21T05:01:53.846Z,19.75
2023-05-21T05:04:22.337Z,19.75
2023-05-21T05:06:50.011Z,19.78
2023-05-21T05:09:17.449Z,19.86
2023-05-21T05:11:45.245Z,19.95
2023-05-21T05:14:12.568Z,20.04
2023-05-21T05:16:40.071Z,20.07
2023-05-21T05:19:07.548Z,20.05
2023-05-21T05:21:35.036Z,20.05
2023-05-21T05:24:02.201Z,20.07
2023-05-21T05:26:29.952Z,20.10
2023-05-21T05:28:57.605Z,20.18
2023-05-21T05:31:25.265Z,20.32
2023-05-21T05:33:53.060Z,20.43
2023-05-21T05:36:21.823Z,20.49
2023-05-21T05:38:49.210Z,20.56
2023-05-21T05:41:16.837Z,20.63
2023-05-21T05:43:44.085Z,20.71
2023-05-21T05:46:11.398Z,20.81
2023-05-21T05:48:41.153Z,20.91
2023-05-21T05:51:09.748Z,20.97
2023-05-21T05:53:37.081Z,21.01
2023-05-21T05:56:05.477Z,21.04
2023-05-21T05:58:33.545Z,21.08
2023-05-21T06:01:10.016Z,21.11
2023-05-21T06:03:37.416Z,21.14
2023-05-21T06:06:13.973Z,21.20
2023-05-21T06:08:41.271Z,21.23
2023-05-21T06:11:08.613Z,21.27
2023-05-21T06:13:36.191Z,21.34
2023-05-21T06:16:04.251Z,21.45
2023-05-21T06:18:31.532Z,21.50
2023-05-21T06:21:00.324Z,21.52
2023-05-21T06:23:27.980Z,21.57
2023-05-21T06:25:55.621Z,21.68
2023-05-21T06:28:24.031Z,21.80
2023-05-21T06:30:51.876Z,21.87
2023-05-21T06:33:20.868Z,21.91
2023-05-21T06:35:48.320Z,21.91
2023-05-21T06:38:15.797Z,21.90
2023-05-21T06:40:44.980Z,21.93
2023-05-21T06:43:14.339Z,22.01
2023-05-21T06:46:00.242Z,22.10
2023-05-21T06:48:46.896Z,22.24
2023-05-21T06:51:16.879Z,22.33
2023-05-21T06:53:44.643Z,22.43
2023-05-21T06:56:15.487Z,22.56
2023-05-21T06:58:43.958Z,22.71
2023-05-21T07:01:12.741Z,22.77
2023-05-21T07:03:40.035Z,22.71
2023-05-21T07:06:08.584Z,22.72
2023-05-21T07:08:36.461Z,22.80
2023-05-21T07:11:04.030Z,22.90
2023-05-21T07:13:31.450Z,22.97
2023-05-21T07:15:58.822Z,23.06
2023-05-21T07:18:26.695Z,23.14
2023-05-21T07:20:54.436Z,23.24
2023-05-21T07:23:21.910Z,23.33
2023-05-21T07:25:50.689Z,23.38
2023-05-21T07:28:19.344Z,23.45
2023-05-21T07:30:46.930Z,23.52
2023-05-21T07:33:17.583Z,23.56
2023-05-21T07:35:45.236Z,23.58
2023-05-21T07:38:12.579Z,23.63
2023-05-21T07:40:39.936Z,23.68
2023-05-21T07:43:07.292Z,23.71
2023-05-21T07:45:36.390Z,23.75
2023-05-21T07:48:06.176Z,23.74
2023-05-21T07:50:34.273Z,23.73
2023-05-21T07:53:01.674Z,23.75
2023-05-21T07:55:31.242Z,23.84
2023-05-21T07:57:58.795Z,23.90
2023-05-21T08:00:30.158Z,23.91
2023-05-21T08:03:00.186Z,23.92
2023-05-21T08:05:29.256Z,23.97
2023-05-21T08:07:57.516Z,24.04
2023-05-21T08:10:25.195Z,24.09
2023-05-21T08:12:52.755Z,24.13
2023-05-21T08:15:20.201Z,24.17
2023-05-21T08:17:51.221Z,24.18
2023-05-21T08:20:21.174Z,24.21
2023-05-21T08:22:48.960Z,24.28
2023-05-21T08:25:17.019Z,24.39
2023-05-21T08:27:44.665Z,24.52
2023-05-21T08:30:12.515Z,24.61
2023-05-21T08:32:39.832Z,24.74
2023-05-21T08:35:08.716Z,24.84
2023-05-21T08:38:03.055Z,24.92
2023-05-21T08:40:44.325Z,24.94
2023-05-21T08:43:15.067Z,24.92
2023-05-21T08:45:51.753Z,24.95
2023-05-21T08:48:19.073Z,24.98
2023-05-21T08:50:47.181Z,25.04
2023-05-21T08:53:27.508Z,25.10
2023-05-21T08:56:00.232Z,25.22
2023-05-21T08:58:47.937Z,25.30
2023-05-21T09:01:19.878Z,25.39
2023-05-21T09:03:49.711Z,25.46
2023-05-21T09:06:16.850Z,25.44
2023-05-21T09:08:46.758Z,25.39
2023-05-21T09:11:27.781Z,25.39
2023-05-21T09:13:57.034Z,25.44
2023-05-21T09:16:50.768Z,25.45
2023-05-21T09:19:22.295Z,25.44
2023-05-21T09:21:52.008Z,25.43
2023-05-21T09:24:23.141Z,25.49
2023-05-21T09:26:51.685Z,25.57
2023-05-21T09:29:20.605Z,25.66
2023-05-21T09:31:48.172Z,25.79
2023-05-21T09:34:17.556Z,25.89
2023-05-21T09:36:46.337Z,25.99
2023-05-21T09:39:16.757Z,26.01
2023-05-21T09:41:44.768Z,25.97
2023-05-21T09:44:12.089Z,25.90
2023-05-21T09:46:42.883Z,25.87
2023-05-21T09:49:26.819Z,25.87
2023-05-21T09:52:01.077Z,25.85
2023-05-21T09:54:32.603Z,25.82
2023-05-21T09:57:04.294Z,25.84
2023-05-21T09:59:39.047Z,25.88
2023-05-21T10:02:20.532Z,26.07
2023-05-21T10:04:51.607Z,26.26
2023-05-21T10:07:22.380Z,26.25
2023-05-21T10:09:49.513Z,26.22
2023-05-21T10:12:18.335Z,26.29
2023-05-21T10:14:46.066Z,26.40
2023-05-21T10:17:13.209Z,26.37
2023-05-21T10:19:40.834Z,26.42
2023-05-21T10:22:08.445Z,26.52
2023-05-21T10:24:35.801Z,26.54
2023-05-21T10:27:04.264Z,26.47
2023-05-21T10:29:31.534Z,26.48
2023-05-21T10:31:58.918Z,26.47
2023-05-21T10:34:26.435Z,26.43
2023-05-21T10:36:53.813Z,26.45
2023-05-21T10:39:21.239Z,26.49
2023-05-21T10:42:32.737Z,26.58
2023-05-21T10:45:24.901Z,26.67
2023-05-21T10:48:23.351Z,26.69
2023-05-21T10:51:29.567Z,26.72
2023-05-21T10:54:12.865Z,26.65
2023-05-21T10:56:45.330Z,26.64
2023-05-21T10:59:41.655Z,26.65
2023-05-21T11:02:09.544Z,26.73
2023-05-21T11:04:40.276Z,26.82
2023-05-21T11:07:07.833Z,26.91
2023-05-21T11:09:35.385Z,27.01
2023-05-21T11:12:04.986Z,27.05
2023-05-21T11:14:37.149Z,26.99
2023-05-21T11:17:10.519Z,27.02
2023-05-21T11:19:42.355Z,27.09
2023-05-21T11:22:30.874Z,27.14
2023-05-21T11:25:01.502Z,27.21
2023-05-21T11:27:36.833Z,27.32
2023-05-21T11:30:10.773Z,27.41
2023-05-21T11:32:40.516Z,27.47
2023-05-21T11:35:08.407Z,27.47
2023-05-21T11:37:35.883Z,27.40
2023-05-21T11:40:26.606Z,27.29
2023-05-21T11:42:54.983Z,27.24
2023-05-21T11:45:23.459Z,27.25
2023-05-21T11:47:51.178Z,27.29
2023-05-21T11:50:18.536Z,27.35
2023-05-21T11:52:45.931Z,27.43
2023-05-21T11:55:15.970Z,27.49
2023-05-21T11:57:45.107Z,27.45
2023-05-21T12:00:16.850Z,27.30
2023-05-21T12:02:50.312Z,27.24
2023-05-21T12:05:17.720Z,27.27
2023-05-21T12:07:48.992Z,27.29
2023-05-21T12:10:17.246Z,27.33
2023-05-21T12:12:54.804Z,27.41
2023-05-21T12:15:24.460Z,27.44
2023-05-21T12:17:53.426Z,27.43
2023-05-21T12:20:21.158Z,27.44
2023-05-21T12:22:51.317Z,27.49
2023-05-21T12:25:21.834Z,27.58
2023-05-21T12:27:50.524Z,27.67
2023-05-21T12:30:17.574Z,27.71
2023-05-21T12:32:45.008Z,27.71
2023-05-21T12:35:23.245Z,27.65
2023-05-21T12:37:51.434Z,27.61
2023-05-21T12:40:18.694Z,27.68
2023-05-21T12:42:46.365Z,27.75
2023-05-21T12:45:14.195Z,27.78
2023-05-21T12:47:41.595Z,27.76
2023-05-21T12:50:12.234Z,27.71
2023-05-21T12:52:40.822Z,27.71
2023-05-21T12:55:10.963Z,27.73
2023-05-21T12:57:42.132Z,27.77
2023-05-21T13:00:12.917Z,27.80
2023-05-21T13:02:42.191Z,27.83
2023-05-21T13:05:11.500Z,27.83
2023-05-21T13:07:39.849Z,27.90
2023-05-21T13:10:08.005Z,27.94
2023-05-21T13:12:35.144Z,27.94
2023-05-21T13:15:03.136Z,27.85
2023-05-21T13:17:30.772Z,27.72
2023-05-21T13:20:15.380Z,27.64
2023-05-21T13:22:45.562Z,27.64
2023-05-21T13:25:16.215Z,27.60
2023-05-21T13:27:43.760Z,27.54
2023-05-21T13:30:14.261Z,27.52
2023-05-21T13:32:42.352Z,27.54
2023-05-21T13:35:10.437Z,27.50
2023-05-21T13:37:37.779Z,27.53
2023-05-21T13:40:06.744Z,27.55
2023-05-21T13:42:34.894Z,27.55
2023-05-21T13:45:02.092Z,27.58
2023-05-21T13:47:29.405Z,27.58
2023-05-21T13:49:56.596Z,27.58
2023-05-21T13:52:24.149Z,27.60
2023-05-21T13:54:53.563Z,27.53
2023-05-21T13:57:21.216Z,27.40
2023-05-21T13:59:48.675Z,27.36
2023-05-21T14:02:18.931Z,27.34
2023-05-21T14:04:46.355Z,27.32
2023-05-21T14:07:13.730Z,27.30
2023-05-21T14:09:41.037Z,27.29
2023-05-21T14:12:08.674Z,27.25
2023-05-21T14:14:37.310Z,27.23
2023-05-21T14:17:06.611Z,27.25
2023-05-21T14:19:34.002Z,27.24
2023-05-21T14:22:01.726Z,27.23
2023-05-21T14:24:29.170Z,27.20
2023-05-21T14:26:56.643Z,27.14
2023-05-21T14:29:23.915Z,27.14
2023-05-21T14:31:51.290Z,27.18
2023-05-21T14:34:18.498Z,27.23
2023-05-21T14:36:45.956Z,27.27
2023-05-21T14:39:13.206Z,27.30
2023-05-21T14:41:40.764Z,27.28
2023-05-21T14:44:09.247Z,27.21
2023-05-21T14:46:37.196Z,27.18
2023-05-21T14:49:05.367Z,27.16
2023-05-21T14:51:32.758Z,27.13
2023-05-21T14:54:00.300Z,27.12
2023-05-21T14:56:28.408Z,27.10
2023-05-21T14:58:55.911Z,27.07
2023-05-21T15:01:23.441Z,27.01
2023-05-21T15:03:51.219Z,26.98
2023-05-21T15:06:18.817Z,26.99
2023-05-21T15:08:46.354Z,26.99
2023-05-21T15:11:13.500Z,26.94
2023-05-21T15:13:40.973Z,26.90
2023-05-21T15:16:08.415Z,26.88
2023-05-21T15:18:35.903Z,26.86
2023-05-21T15:21:03.341Z,26.81
2023-05-21T15:23:31.571Z,26.76
2023-05-21T15:25:58.972Z,26.71
2023-05-21T15:28:26.551Z,26.59
2023-05-21T15:30:54.094Z,26.51
2023-05-21T15:33:21.356Z,26.46
2023-05-21T15:35:49.087Z,26.43
2023-05-21T15:38:18.014Z,26.35
2023-05-21T15:40:45.351Z,26.28
2023-05-21T15:43:12.768Z,26.22
2023-05-21T15:45:40.270Z,26.19
2023-05-21T15:48:07.909Z,26.19
2023-05-21T15:50:38.750Z,26.20
2023-05-21T15:53:05.892Z,26.21
2023-05-21T15:55:33.921Z,26.20
2023-05-21T15:58:02.555Z,26.18
2023-05-21T16:00:30.432Z,26.15
2023-05-21T16:02:58.219Z,26.13
2023-05-21T16:05:26.563Z,26.09
2023-05-21T16:07:54.627Z,26.04
2023-05-21T16:10:23.213Z,25.99
2023-05-21T16:12:51.437Z,25.96
2023-05-21T16:15:21.627Z,25.93
2023-05-21T16:17:49.009Z,25.89
2023-05-21T16:20:20.395Z,25.88
2023-05-21T16:22:48.680Z,25.85
2023-05-21T16:25:15.949Z,25.83
2023-05-21T16:27:43.088Z,25.79
2023-05-21T16:30:12.037Z,25.75
2023-05-21T16:32:39.837Z,25.70
2023-05-21T16:35:09.681Z,25.68
2023-05-21T16:37:36.908Z,25.65
2023-05-21T16:40:05.045Z,25.61
2023-05-21T16:42:34.019Z,25.57
2023-05-21T16:45:01.550Z,25.53
2023-05-21T16:47:29.229Z,25.48
2023-05-21T16:49:56.542Z,25.43
2023-05-21T16:52:24.422Z,25.40
2023-05-21T16:54:51.769Z,25.38
2023-05-21T16:57:19.150Z,25.36
2023-05-21T16:59:46.483Z,25.31
2023-05-21T17:02:14.256Z,25.26
2023-05-21T17:04:42.322Z,25.19
2023-05-21T17:07:11.922Z,25.13
2023-05-21T17:09:39.170Z,25.08
2023-05-21T17:12:07.021Z,25.02
2023-05-21T17:14:35.447Z,24.97
2023-05-21T17:17:03.825Z,24.93
2023-05-21T17:19:31.273Z,24.91
2023-05-21T17:21:58.788Z,24.88
2023-05-21T17:24:26.085Z,24.83
2023-05-21T17:26:53.872Z,24.80
2023-05-21T17:29:21.061Z,24.74
2023-05-21T17:31:48.341Z,24.67
2023-05-21T17:34:17.049Z,24.58
2023-05-21T17:36:44.195Z,24.49
2023-05-21T17:39:11.547Z,24.38
2023-05-21T17:41:38.829Z,24.30
2023-05-21T17:44:06.202Z,24.18
2023-05-21T17:46:33.507Z,24.06
2023-05-21T17:49:01.164Z,23.92
2023-05-21T17:51:28.554Z,23.81
2023-05-21T17:53:56.739Z,23.73
2023-05-21T17:56:24.099Z,23.70
2023-05-21T17:58:51.475Z,23.64
2023-05-21T18:01:18.878Z,23.60
2023-05-21T18:03:46.863Z,23.56
2023-05-21T18:06:14.421Z,23.47
2023-05-21T18:08:41.834Z,23.32
2023-05-21T18:11:11.463Z,23.16
2023-05-21T18:13:38.586Z,23.06
2023-05-21T18:16:06.048Z,22.99
2023-05-21T18:18:33.472Z,22.91
2023-05-21T18:21:00.876Z,22.77
2023-05-21T18:23:28.916Z,22.65
2023-05-21T18:25:56.774Z,22.56
2023-05-21T18:28:24.615Z,22.44
2023-05-21T18:30:53.674Z,22.27
2023-05-21T18:33:21.384Z,22.09
2023-05-21T18:35:50.945Z,21.92
2023-05-21T18:38:19.083Z,21.76
2023-05-21T18:40:49.088Z,21.69
2023-05-21T18:43:20.652Z,21.64
2023-05-21T18:45:48.407Z,21.55
2023-05-21T18:48:16.886Z,21.44
2023-05-21T18:50:46.974Z,21.35
2023-05-21T18:53:14.859Z,21.25
2023-05-21T18:55:43.429Z,21.17
2023-05-21T18:58:11.230Z,21.09
2023-05-21T19:00:39.913Z,21.02
2023-05-21T19:03:07.772Z,20.96
2023-05-21T19:05:35.464Z,20.92
2023-05-21T19:08:04.357Z,20.88
2023-05-21T19:10:37.311Z,20.84
2023-05-21T19:13:06.297Z,20.72
2023-05-21T19:15:36.571Z,20.63
2023-05-21T19:18:04.057Z,20.55
2023-05-21T19:20:32.649Z,20.46
2023-05-21T19:23:00.557Z,20.40
2023-05-21T19:25:29.739Z,20.35
2023-05-21T19:27:58.492Z,20.30
2023-05-21T19:30:27.517Z,20.25
2023-05-21T19:32:55.130Z,20.20
2023-05-21T19:35:24.301Z,20.11
2023-05-21T19:40:40.487Z,19.93
2023-05-21T19:43:14.385Z,19.81
2023-05-21T19:45:47.356Z,19.74
2023-05-21T19:48:18.062Z,19.69
2023-05-21T19:50:49.622Z,19.65
2023-05-21T19:53:20.047Z,19.63
2023-05-21T19:55:50.478Z,19.60
2023-05-21T19:58:24.582Z,19.52
2023-05-21T20:01:01.587Z,19.44
2023-05-21T20:03:36.039Z,19.39
2023-05-21T20:06:03.854Z,19.36
2023-05-21T20:08:31.317Z,19.33
2023-05-21T20:11:01.210Z,19.31
2023-05-21T20:13:31.863Z,19.30
2023-05-21T20:16:01.956Z,19.22
2023-05-21T20:18:29.311Z,19.10
2023-05-21T20:21:00.576Z,18.97
2023-05-21T20:23:50.482Z,18.84
2023-05-21T20:26:27.255Z,18.75
2023-05-21T20:29:08.619Z,18.68
2023-05-21T20:31:38.090Z,18.60
2023-05-21T20:34:26.656Z,18.52
2023-05-21T20:37:05.774Z,18.48
2023-05-21T20:39:47.073Z,18.47
2023-05-21T20:42:21.990Z,18.42
2023-05-21T20:44:58.158Z,18.40
2023-05-21T20:47:30.354Z,18.38
2023-05-21T20:50:08.167Z,18.35
2023-05-21T20:52:43.453Z,18.35
2023-05-21T20:55:15.347Z,18.35
2023-05-21T20:57:54.765Z,18.37
2023-05-21T21:00:31.012Z,18.40
2023-05-21T21:03:08.672Z,18.44
2023-05-21T21:05:36.721Z,18.46
2023-05-21T21:08:14.473Z,18.45
2023-05-21T21:10:47.258Z,18.44
2023-05-21T21:13:19.719Z,18.42
2023-05-21T21:15:56.031Z,18.38
2023-05-21T21:18:23.461Z,18.35
2023-05-21T21:20:53.245Z,18.34
2023-05-21T21:23:37.537Z,18.32
2023-05-21T21:26:11.421Z,18.30
2023-05-21T21:28:38.900Z,18.30
2023-05-21T21:31:09.472Z,18.31
2023-05-21T21:33:41.543Z,18.28
2023-05-21T21:36:16.521Z,18.23
2023-05-21T21:38:48.153Z,18.10
2023-05-21T21:41:27.599Z,18.03
2023-05-21T21:43:59.413Z,18.00
2023-05-21T21:46:33.115Z,17.97
2023-05-21T21:49:03.414Z,17.96
2023-05-21T21:51:36.559Z,17.96
2023-05-21T21:54:03.958Z,17.92
2023-05-21T21:56:43.031Z,17.91
2023-05-21T21:59:15.338Z,17.91
2023-05-21T22:01:54.978Z,17.89
2023-05-21T22:04:30.293Z,17.85
2023-05-21T22:07:17.428Z,17.81
2023-05-21T22:09:47.982Z,17.77
2023-05-21T22:12:25.408Z,17.73
2023-05-21T22:15:03.824Z,17.66
2023-05-21T22:17:38.333Z,17.58
2023-05-21T22:20:09.315Z,17.53
2023-05-21T22:22:38.851Z,17.51
2023-05-21T22:25:09.990Z,17.49
2023-05-21T22:27:40.610Z,17.44
2023-05-21T22:30:25.027Z,17.32
2023-05-21T22:33:03.177Z,17.12
2023-05-21T22:35:32.027Z,16.98
2023-05-21T22:38:01.199Z,16.93
2023-05-21T22:40:33.419Z,16.86
2023-05-21T22:43:05.497Z,16.85
2023-05-21T22:45:47.143Z,16.82
2023-05-21T22:48:20.643Z,16.75
2023-05-21T22:51:12.786Z,16.67
2023-05-21T22:53:53.887Z,16.62
2023-05-21T22:56:26.875Z,16.64
2023-05-21T22:59:00.776Z,16.64
2023-05-21T23:01:32.262Z,16.66
2023-05-21T23:04:02.172Z,16.64
2023-05-21T23:06:37.865Z,16.50
2023-05-21T23:09:17.846Z,16.34
2023-05-21T23:11:47.363Z,16.24
2023-05-21T23:14:15.007Z,16.21
2023-05-21T23:16:47.699Z,16.20
2023-05-21T23:19:18.406Z,16.17
2023-05-21T23:22:00.677Z,16.11
2023-05-21T23:24:30.351Z,16.09
2023-05-21T23:27:11.917Z,16.10
2023-05-21T23:29:55.609Z,16.08
2023-05-21T23:32:23.978Z,16.04
2023-05-21T23:34:57.930Z,15.98
2023-05-21T23:37:31.181Z,15.94
2023-05-21T23:40:11.653Z,15.96
2023-05-21T23:42:48.843Z,16.00
2023-05-21T23:45:29.514Z,16.03
2023-05-21T23:47:58.472Z,16.05
2023-05-21T23:50:37.054Z,15.98
2023-05-21T23:53:13.498Z,15.84
2023-05-21T23:55:44.253Z,15.81
2023-05-21T23:58:16.127Z,15.76
